Hauptseite
METAR-TAF:

METAR-TAF

Flughäfen :

Curaçao, Niederländische Antillen

Flughafen Curaçao

Breite: 12-12N, Länge: 068-58W, Höhe: 9 m

Beobachtung

Neuester Wetterbericht von vor 33 Minuten, um 01:00 UTC
Wind 11 kt aus Ost
Temperatur 27°C
Luftfeuchtigkeit 79%
Luftdruck 1014 hPa
Sichtweite 10 km oder mehr
Leicht bewölkt in der Höhe von 2000 ft

METAR: TNCC 190100Z 09011KT 9999 FEW020 27/23 Q1014 NOSIG

Zeit: 21:33 (01:33 UTC)

Prognose

Neuester Wetterbericht von vor 3 Stunden und 33 Minuten, um 22:00 UTC
Gültige Prognose vom 19 um 00 UTC bis 19 um 24 UTC
Wind 10 kt aus Ost
Sichtweite 10 km oder mehr
Aufgelockert bewölkt in der Höhe von 2000 ft
Wahrscheinlichkeit 30% :
Zeitweise
vom 19 um 06 UTC bis 19 um 14 UTC
Durchbrochene Bewölkung in der Höhe von 1500 ft

TAF: TNCC 182200Z 1900/1924 09010KT 9999 SCT020 PROB30 TEMPO 1906/1914 BKN015

Wetterbeobachtungen und Prognosen von mehr als 4000 Flughäfen (METAR und TAF Bericht).

Die verfügbaren Stationen werden durch gelbe und rote Markierungen auf der Karte dargestellt.

Führen Sie die Maus auf sie, um den Namen der Station zu sehen.

Darauf klicken, um die Beobachtung von Wetterbeobachtungen und Prognosen zu sehen.

Um die Karte zu ändern : klicken Sie auf den grünen Tasten mit einem schwarzen Kreuz Zum Vergrößern, auf den grünen Button mit einem Gedankenstrich zu verkleinern, oder auf die grünen Pfeile für benachbarte Karten.


METAR-TAF: